Mount Shasta, CA

2:34 PM PDT on October 20, 2014 (GMT -0700)
RAWS MT. SHASTA CA US | Change Station
CLOSE
Current Station
Personal Weather Station
Location: Mount Shasta, CA
Elevation: 3573 ft
Nearby Weather Stations

Elev 3573 ft 41.32 °N, 122.32 °W | Updated 40 minutes ago

Overcast
Overcast
54 °F
Feels Like 54 °F
N
9
Wind Variable Wind from ESE
Gusts 15.0 mph

Today
High -- | Low -- °F
--% Chance of Precip.
Yesterday
High -- | Low -- °F
Precip. -- in
7:26 AM 6:20 PM
Waning Crescent, 9% visible
Pressure 29.88 in
Visibility 10.0 miles
Clouds Mostly Cloudy 4400 ft
Mostly Cloudy 5500 ft
Overcast 7000 ft
Dew Point 49 °F
Humidity 82%
Rainfall 0.10 in
Snow Depth Not available.
UV 1 out of 12
Pollen 2.10 out of 12
Air Quality Not available.
Flu Activity Sporadic
METAR KMHS 202056Z AUTO VRB03KT 10SM BKN044 BKN055 OVC070 12/09 A2988 RMK AO2 SLP119 60001 T01220089 57005

More Conditions Fewer Conditions

Pressure 29.88 in
Visibility 10.0 miles
Clouds Mostly Cloudy 4400 ft
Mostly Cloudy 5500 ft
Overcast 7000 ft
Dew Point 49 °F
Humidity 82%
Rainfall 0.10 in
Snow Depth Not available.
UV 1 out of 12
Pollen 2.10 out of 12
Air Quality Not available.
Flu Activity Sporadic
METAR KMHS 202056Z AUTO VRB03KT 10SM BKN044 BKN055 OVC070 12/09 A2988 RMK AO2 SLP119 60001 T01220089 57005

More Conditions Fewer Conditions

10-Day Weather Forecast

Almanac

Astronomy

Oct. 20, 2014 Rise Set
Actual Time 7:26 AM PDT 6:20 PM PDT
Civil Twilight 6:58 AM PDT 6:48 PM PDT
Nautical Twilight 6:26 AM PDT 7:20 PM PDT
Astronomical Twilight 5:54 AM PDT 7:52 PM PDT
Moon 4:18 AM PDT 4:47 PM PDT
Length of Visible Light 11h 49m
Length of Day
10h 53m
Waning Crescent, 9% of the Moon is Illuminated
Today
Waning Crescent
Oct 23
New
Oct 30
First Quarter
Nov 6
Full
Nov 14
Last Quarter

Today's Extremes

State Highs State Lows

Community

WunderPhotos

Upload Photos

1,763,525 photos uploaded!

WunderBlogs® & News

Nearby

Snow Depth

Station Depth Elevation
Adin Mountain 0 in 6200 ft
Independence Lake 0 in 8450 ft
CSS Lab 1 in 6900 ft
Ward Creek #3 0 in 6750 ft
Tahoe City Cross 0 in 6750 ft

Earthquake Activity

City Distance Mag. Time & Date
No recent earthquake activity has been reported nearby.
Minimum magnitude displayed is 2.5.

Coastal Water Temperatures

Place Temperature
No Stations Reporting

Nearby Weather Stations